ADDS METAR Data INFO
IDs: Format: Raw Decoded Include TAF

Data at: 2158 UTC 24 Feb 2018

PARC 242156Z AUTO 16003KT 10SM CLR M18/M23 A2935 RMK AO2 SLP025 T11831228 FZRANO
PARC 242056Z AUTO 19003KT 10SM CLR M20/M22 A2935 RMK AO2 SLP030 T12001222 57012 FZRANO
PARC 241956Z AUTO 10003KT 10SM CLR M26/M29 A2936 RMK AO2 SLP038 T12611289 FZRANO
PARC 241856Z AUTO 20005KT 10SM CLR M31/M33 A2938 RMK AO2 SLP047 T13061333 FZRANO
PARC 241756Z AUTO 00000KT 10SM CLR M31/M34 A2939 RMK AO2 SLP048 T13111339 11256 21333 56006 FZRANO
PARC 241656Z AUTO 00000KT 10SM CLR M32/M34 A2939 RMK AO2 SLP049 T13171344 FZRANO
PARC 241556Z AUTO 19004KT 10SM CLR M31/M34 A2940 RMK AO2 SLP050 T13111339 FZRANO
PARC 241456Z AUTO 00000KT 10SM CLR M31/M33 A2941 RMK AO2 SLP050 T13061333 56021 FZRANO
PARC 241356Z AUTO 00000KT 10SM CLR M32/M35 A2942 RMK AO2 SLP051 T13221350 FZRANO
PARC 241256Z AUTO 00000KT 10SM CLR M28/M30 A2945 RMK AO2 SLP054 T12831300 FZRANO
PARC 241156Z AUTO 00000KT 10SM CLR M26/M28 A2947 RMK AO2 SLP055 T12561278 11200 21289 58026 FZRANO
PARC 240956Z AUTO 00000KT 10SM CLR M26/M28 A2953 RMK AO2 SLP077 T12561278 FZRANO
PARC 240856Z AUTO 21003KT 10SM CLR M26/M28 A2955 RMK AO2 SLP089 T12611278 56017 FZRANO
PARC 240756Z AUTO 00000KT 10SM CLR M23/M26 A2957 RMK AO2 SLP094 T12331256 410501256 FZRANO
PARC 240656Z AUTO 21003KT 10SM CLR M23/M25 A2959 RMK AO2 SLP101 T12281250 FZRANO
PARC 240556Z AUTO 00000KT 10SM CLR M20/M23 A2961 RMK AO2 SLP108 T12001228 11056 21200 58015 FZRANO
PARC 240456Z AUTO 07003KT 10SM CLR M19/M22 A2963 RMK AO2 SLP116 T11941222 FZRANO
PARC 240256Z AUTO 00000KT 10SM FEW120 M16/M20 A2966 RMK AO2 SLP129 T11611200 58010 FZRANO
PARC 240156Z AUTO 27004KT 10SM CLR M12/M18 A2967 RMK AO2 SLP129 T11171183 FZRANO
PARC 240056Z AUTO 09004KT 10SM FEW080 M11/M17 A2968 RMK AO2 SLP129 T11061172 FZRANO
PARC 232356Z AUTO 00000KT 10SM CLR M06/M16 A2969 RMK AO2 SLP126 T10561161 11050 21156 58002 FZRANO
PARC 232256Z AUTO 00000KT 10SM CLR M07/M17 A2970 RMK AO2 SLP129 T10671167 FZRANO
PARC 232156Z AUTO 35003KT 10SM CLR M07/M16 A2969 RMK AO2 SLP129 T10721156 FZRANO
PARC 232056Z AUTO 00000KT 10SM CLR M11/M17 A2970 RMK AO2 SLP132 T11061172 50006 FZRANO
PARC 231956Z AUTO 00000KT 10SM CLR M13/M17 A2970 RMK AO2 SLP137 T11281167 FZRANO
PARC 231856Z AUTO 06004KT 10SM CLR M14/M17 A2969 RMK AO2 SLP133 T11441167 FZRANO
PARC 231756Z AUTO 35004KT 10SM CLR M16/M18 A2968 RMK AO2 SLP130 T11611178 11161 21256 51019 FZRANO
PARC 231656Z AUTO VRB03KT 10SM CLR M18/M20 A2966 RMK AO2 SLP126 T11831200 FZRANO
PARC 231556Z AUTO VRB03KT 10SM CLR M22/M24 A2964 RMK AO2 SLP123 T12221244 FZRANO
PARC 231456Z AUTO 11005KT 10SM CLR M24/M26 A2962 RMK AO2 SLP115 T12441261 51018 FZRANO
PARC 231356Z AUTO 00000KT 10SM CLR M25/M27 A2960 RMK AO2 SLP111 T12501272 FZRANO
PARC 231256Z AUTO 00000KT 10SM CLR M24/M27 A2958 RMK AO2 SLP101 T12391267 FZRANO
PARC 231156Z AUTO 00000KT 10SM CLR M23/M25 A2956 RMK AO2 SLP092 T12281250 11189 21228 51008 FZRANO
PARC 231056Z AUTO 31004KT 10SM CLR M22/M24 A2956 RMK AO2 SLP088 T12171244 FZRANO